Terminal Aerodrome Forecast
Issued by NWS Mt. Holly, NJ

Home | Current Version | Previous Version | Text Only | Print | Product List | Glossary On
Versions: 1 2 3 4 5 6 7 8 9 10 11 12 13 14 15 16 17 18 19
270
FTUS41 KPHI 270559
TAFTTN
TAF
KTTN 270559Z 2706/2806 20004KT P6SM SCT035 BKN100
     FM271400 20006KT P6SM BKN025
     FM271800 23008KT P6SM BKN025 PROB30 2721/2723 5SM -TSRA
      BKN030CB
     FM272300 18004KT P6SM BKN035 BKN050 PROB30 2723/2804 3SM -TSRA
      OVC025CB=

USA.gov is the U.S. government's official web portal to all federal, state and local government web resources and services.